createdAt,value
2023-02-19T00:00:49.259Z,100436.44
2023-02-19T00:03:57.053Z,100438.25
2023-02-19T00:07:02.015Z,100447.28
2023-02-19T00:10:04.934Z,100458.28
2023-02-19T00:13:08.783Z,100435.88
2023-02-19T00:16:15.095Z,100444.50
2023-02-19T00:19:20.415Z,100451.69
2023-02-19T00:22:23.213Z,100443.13
2023-02-19T00:25:27.354Z,100425.88
2023-02-19T00:28:30.148Z,100449.53
2023-02-19T00:31:35.667Z,100450.13
2023-02-19T00:34:39.545Z,100456.31
2023-02-19T00:37:42.174Z,100460.75
2023-02-19T00:40:45.103Z,100451.31
2023-02-19T00:43:50.354Z,100441.75
2023-02-19T00:46:52.948Z,100451.13
2023-02-19T00:49:56.009Z,100453.16
2023-02-19T00:52:58.571Z,100445.72
2023-02-19T00:56:01.321Z,100433.94
2023-02-19T00:59:04.763Z,100445.16
2023-02-19T01:02:07.309Z,100433.13
2023-02-19T01:05:10.116Z,100434.34
2023-02-19T01:08:12.832Z,100413.75
2023-02-19T01:11:15.864Z,100425.56
2023-02-19T01:14:18.579Z,100433.97
2023-02-19T01:17:21.604Z,100421.56
2023-02-19T01:20:24.852Z,100420.75
2023-02-19T01:23:27.556Z,100419.94
2023-02-19T01:26:32.345Z,100413.16
2023-02-19T01:29:36.745Z,100406.97
2023-02-19T01:32:39.379Z,100413.56
2023-02-19T01:35:42.378Z,100413.31
2023-02-19T01:38:46.667Z,100407.72
2023-02-19T01:41:49.232Z,100412.75
2023-02-19T01:44:51.834Z,100419.34
2023-02-19T01:48:42.154Z,100405.56
2023-02-19T01:51:48.340Z,100416.38
2023-02-19T01:54:51.122Z,100417.94
2023-02-19T01:57:56.443Z,100412.72
2023-02-19T02:01:02.608Z,100421.31
2023-02-19T02:04:08.003Z,100424.72
2023-02-19T02:07:30.157Z,100417.72
2023-02-19T02:10:35.743Z,100419.94
2023-02-19T02:13:39.954Z,100433.56
2023-02-19T02:16:45.506Z,100419.97
2023-02-19T02:20:10.668Z,100394.34
2023-02-19T02:23:33.209Z,100378.94
2023-02-19T02:26:51.338Z,100392.75
2023-02-19T02:30:17.540Z,100399.75
2023-02-19T02:33:44.587Z,100402.75
2023-02-19T02:36:52.477Z,100395.78
2023-02-19T02:39:58.590Z,100381.16
2023-02-19T02:43:02.902Z,100387.78
2023-02-19T02:46:06.703Z,100398.97
2023-02-19T02:49:21.437Z,100393.56
2023-02-19T02:52:42.894Z,100399.78
2023-02-19T02:55:49.710Z,100401.56
2023-02-19T02:58:54.030Z,100392.38
2023-02-19T03:02:14.749Z,100404.75
2023-02-19T03:05:44.973Z,100416.38
2023-02-19T03:08:57.004Z,100401.75
2023-02-19T03:12:21.957Z,100401.97
2023-02-19T03:15:49.909Z,100405.78
2023-02-19T03:19:15.969Z,100399.56
2023-02-19T03:22:40.596Z,100417.16
2023-02-19T03:26:02.906Z,100405.16
2023-02-19T03:29:24.295Z,100416.16
2023-02-19T03:32:36.473Z,100410.34
2023-02-19T03:35:51.029Z,100425.34
2023-02-19T03:39:06.710Z,100421.53
2023-02-19T03:42:38.456Z,100420.25
2023-02-19T03:45:57.090Z,100431.81
2023-02-19T03:49:09.999Z,100440.00
2023-02-19T03:52:31.565Z,100430.22
2023-02-19T03:56:14.227Z,100425.63
2023-02-19T03:59:42.534Z,100439.31
2023-02-19T04:03:17.674Z,100444.34
2023-02-19T04:06:27.483Z,100444.34
2023-02-19T04:09:40.871Z,100435.34
2023-02-19T04:12:54.173Z,100436.94
2023-02-19T04:16:03.582Z,100439.53
2023-02-19T04:19:11.612Z,100429.31
2023-02-19T04:22:18.931Z,100436.13
2023-02-19T04:25:23.979Z,100424.13
2023-02-19T04:28:29.053Z,100428.34
2023-02-19T04:31:35.506Z,100408.91
2023-02-19T04:34:38.266Z,100415.94
2023-02-19T04:37:41.246Z,100413.09
2023-02-19T04:40:44.272Z,100414.66
2023-02-19T04:43:47.228Z,100409.25
2023-02-19T04:46:49.821Z,100417.47
2023-02-19T04:49:53.076Z,100421.72
2023-02-19T04:52:57.255Z,100414.13
2023-02-19T04:56:27.705Z,100423.94
2023-02-19T04:59:31.379Z,100429.16
2023-02-19T05:02:35.093Z,100418.16
2023-02-19T05:05:37.608Z,100411.13
2023-02-19T05:08:40.774Z,100407.53
2023-02-19T05:11:43.429Z,100393.53
2023-02-19T05:14:46.374Z,100381.72
2023-02-19T05:17:49.009Z,100382.88
2023-02-19T05:20:52.443Z,100383.09
2023-02-19T05:23:55.043Z,100372.91
2023-02-19T05:26:57.669Z,100369.50
2023-02-19T05:30:01.113Z,100393.34
2023-02-19T05:33:04.241Z,100385.56
2023-02-19T05:36:10.704Z,100404.75
2023-02-19T05:39:13.568Z,100397.16
2023-02-19T05:42:16.212Z,100403.72
2023-02-19T05:45:19.844Z,100412.72
2023-02-19T05:48:22.369Z,100405.94
2023-02-19T05:51:27.228Z,100425.13
2023-02-19T05:54:30.623Z,100415.72
2023-02-19T05:57:34.392Z,100421.25
2023-02-19T06:00:39.190Z,100416.06
2023-02-19T06:03:43.361Z,100423.28
2023-02-19T06:06:47.233Z,100412.31
2023-02-19T06:09:54.942Z,100419.31
2023-02-19T06:12:58.333Z,100415.13
2023-02-19T06:16:04.600Z,100389.16
2023-02-19T06:19:07.602Z,100394.75
2023-02-19T06:22:10.340Z,100389.97
2023-02-19T06:25:12.918Z,100393.34
2023-02-19T06:28:15.630Z,100391.75
2023-02-19T06:31:20.552Z,100395.16
2023-02-19T06:34:23.776Z,100397.97
2023-02-19T06:37:26.622Z,100392.19
2023-02-19T06:40:29.456Z,100378.56
2023-02-19T06:43:33.330Z,100382.75
2023-02-19T06:46:36.172Z,100380.38
2023-02-19T06:49:41.878Z,100392.38
2023-02-19T06:52:44.453Z,100396.56
2023-02-19T06:56:05.911Z,100396.56
2023-02-19T06:59:11.672Z,100396.16
2023-02-19T07:02:14.337Z,100402.16
2023-02-19T07:05:16.969Z,100401.16
2023-02-19T07:08:21.197Z,100403.56
2023-02-19T07:11:24.474Z,100414.75
2023-02-19T07:14:27.189Z,100415.53
2023-02-19T07:17:29.699Z,100407.13
2023-02-19T07:20:33.461Z,100400.13
2023-02-19T07:23:38.152Z,100399.94
2023-02-19T07:26:40.770Z,100395.56
2023-02-19T07:29:45.609Z,100402.31
2023-02-19T07:32:48.374Z,100388.72
2023-02-19T07:35:51.391Z,100377.91
2023-02-19T07:38:56.617Z,100386.06
2023-02-19T07:41:59.203Z,100368.91
2023-02-19T07:45:02.776Z,100368.09
2023-02-19T07:48:05.864Z,100381.84
2023-02-19T07:51:13.424Z,100373.97
2023-02-19T07:54:16.431Z,100375.38
2023-02-19T07:57:18.949Z,100385.56
2023-02-19T08:00:25.863Z,100400.34
2023-02-19T08:03:29.136Z,100400.97
2023-02-19T08:06:31.751Z,100396.38
2023-02-19T08:09:34.480Z,100413.56
2023-02-19T08:12:56.686Z,100406.94
2023-02-19T08:16:16.006Z,100416.13
2023-02-19T08:19:21.950Z,100425.97
2023-02-19T08:22:24.615Z,100413.56
2023-02-19T08:25:27.336Z,100422.78
2023-02-19T08:28:30.780Z,100426.41
2023-02-19T08:31:35.132Z,100424.06
2023-02-19T08:34:38.009Z,100426.06
2023-02-19T08:37:40.633Z,100423.50
2023-02-19T08:40:43.761Z,100416.91
2023-02-19T08:43:47.832Z,100412.94
2023-02-19T08:46:50.480Z,100407.75
2023-02-19T08:49:53.258Z,100404.34
2023-02-19T08:52:56.228Z,100401.31
2023-02-19T08:56:00.309Z,100401.56
2023-02-19T08:59:02.969Z,100404.34
2023-02-19T09:02:05.600Z,100393.56
2023-02-19T09:05:08.346Z,100407.38
2023-02-19T09:08:12.771Z,100426.31
2023-02-19T09:11:15.613Z,100423.53
2023-02-19T09:14:18.196Z,100429.63
2023-02-19T09:17:21.044Z,100415.66
2023-02-19T09:20:24.627Z,100415.84
2023-02-19T09:23:27.315Z,100418.28
2023-02-19T09:26:29.958Z,100419.47
2023-02-19T09:29:34.498Z,100427.22
2023-02-19T09:32:37.031Z,100417.84
2023-02-19T09:35:42.356Z,100417.00
2023-02-19T09:38:45.947Z,100400.25
2023-02-19T09:41:53.845Z,100406.13
2023-02-19T09:44:59.935Z,100408.75
2023-02-19T09:48:06.307Z,100390.34
2023-02-19T09:51:11.297Z,100394.16
2023-02-19T09:54:22.755Z,100363.59
2023-02-19T09:57:28.267Z,100369.78
2023-02-19T10:00:35.110Z,100354.94
2023-02-19T10:03:43.768Z,100356.53
2023-02-19T10:06:47.658Z,100330.78
2023-02-19T10:10:18.816Z,100347.09
2023-02-19T10:13:36.129Z,100345.13
2023-02-19T10:16:42.304Z,100340.47
2023-02-19T10:19:45.002Z,100337.59
2023-02-19T10:22:49.085Z,100342.69
2023-02-19T10:25:57.186Z,100324.75
2023-02-19T10:29:00.077Z,100324.03
2023-02-19T10:32:13.988Z,100313.63
2023-02-19T10:35:16.786Z,100313.47
2023-02-19T10:38:21.496Z,100289.41
2023-02-19T10:41:27.977Z,100298.56
2023-02-19T10:44:39.392Z,100262.81
2023-02-19T10:47:47.023Z,100277.69
2023-02-19T10:50:58.214Z,100263.75
2023-02-19T10:54:17.016Z,100239.53
2023-02-19T10:57:19.582Z,100246.28
2023-02-19T11:00:30.912Z,100233.09
2023-02-19T11:03:33.530Z,100224.34
2023-02-19T11:06:36.165Z,100221.25
2023-02-19T11:09:43.918Z,100225.91
2023-02-19T11:12:49.221Z,100200.84
2023-02-19T11:15:55.957Z,100224.69
2023-02-19T11:18:58.816Z,100224.28
2023-02-19T11:22:02.368Z,100200.06
2023-02-19T11:25:19.403Z,100211.88
2023-02-19T11:28:38.906Z,100205.84
2023-02-19T11:31:42.877Z,100187.38
2023-02-19T11:34:46.725Z,100179.75
2023-02-19T11:38:10.951Z,100199.78
2023-02-19T11:41:58.015Z,100195.00
2023-02-19T11:45:08.310Z,100199.72
2023-02-19T11:48:36.251Z,100191.09
2023-02-19T11:52:12.674Z,100192.09
2023-02-19T11:55:59.151Z,100191.47
2023-02-19T11:59:09.795Z,100190.47
2023-02-19T12:02:41.124Z,100200.22
2023-02-19T12:06:04.800Z,100173.66
2023-02-19T12:09:43.886Z,100183.94
2023-02-19T12:13:04.493Z,100166.53
2023-02-19T12:16:25.099Z,100150.19
2023-02-19T12:20:02.118Z,100138.13
2023-02-19T12:23:39.737Z,100141.53
2023-02-19T12:26:50.597Z,100160.22
2023-02-19T12:30:23.082Z,100148.16
2023-02-19T12:33:48.037Z,100160.97
2023-02-19T12:37:19.036Z,100189.47
2023-02-19T12:40:42.591Z,100211.78
2023-02-19T12:44:00.771Z,100180.75
2023-02-19T12:47:06.916Z,100179.34
2023-02-19T12:50:39.302Z,100182.09
2023-02-19T12:54:02.667Z,100184.00
2023-02-19T12:57:21.486Z,100175.72
2023-02-19T13:00:47.059Z,100175.94
2023-02-19T13:04:06.141Z,100196.31
2023-02-19T13:07:17.627Z,100212.44
2023-02-19T13:10:33.899Z,100218.16
2023-02-19T13:13:44.380Z,100201.31
2023-02-19T13:16:50.968Z,100204.19
2023-02-19T13:20:03.390Z,100193.31
2023-02-19T13:23:36.621Z,100201.22
2023-02-19T13:26:52.227Z,100205.38
2023-02-19T13:29:54.927Z,100216.09
2023-02-19T13:33:25.258Z,100234.25
2023-02-19T13:36:29.812Z,100222.34
2023-02-19T13:39:33.498Z,100211.50
2023-02-19T13:42:36.835Z,100214.28
2023-02-19T13:45:43.307Z,100216.50
2023-02-19T13:48:46.111Z,100212.72
2023-02-19T13:51:57.109Z,100233.91
2023-02-19T13:55:40.745Z,100244.13
2023-02-19T13:58:54.618Z,100242.41
2023-02-19T14:02:00.625Z,100260.41
2023-02-19T14:05:11.499Z,100257.22
2023-02-19T14:08:52.877Z,100273.00
2023-02-19T14:12:13.729Z,100259.59
2023-02-19T14:15:36.937Z,100272.47
2023-02-19T14:18:45.101Z,100270.88
2023-02-19T14:21:47.666Z,100279.91
2023-02-19T14:24:53.382Z,100299.97
2023-02-19T14:28:02.475Z,100309.63
2023-02-19T14:31:18.019Z,100311.94
2023-02-19T14:34:25.401Z,100321.78
2023-02-19T14:37:27.961Z,100308.00
2023-02-19T14:40:41.706Z,100314.75
2023-02-19T14:43:47.501Z,100324.50
2023-02-19T14:46:58.970Z,100319.22
2023-02-19T14:50:07.283Z,100336.00
2023-02-19T14:53:10.291Z,100329.34
2023-02-19T14:56:23.820Z,100335.81
2023-02-19T14:59:28.808Z,100337.38
2023-02-19T15:02:32.567Z,100331.72
2023-02-19T15:05:38.211Z,100340.78
2023-02-19T15:08:46.613Z,100336.13
2023-02-19T15:11:49.382Z,100330.75
2023-02-19T15:14:56.744Z,100328.25
2023-02-19T15:18:01.518Z,100320.56
2023-02-19T15:21:06.894Z,100302.16
2023-02-19T15:24:14.284Z,100300.97
2023-02-19T15:27:22.702Z,100281.66
2023-02-19T15:30:31.514Z,100294.41
2023-02-19T15:33:35.002Z,100316.00
2023-02-19T15:36:37.821Z,100304.22
2023-02-19T15:39:45.058Z,100313.16
2023-02-19T15:42:48.011Z,100318.34
2023-02-19T15:45:52.544Z,100315.44
2023-02-19T15:49:11.492Z,100338.09
2023-02-19T15:52:36.431Z,100334.53
2023-02-19T15:55:57.999Z,100337.38
2023-02-19T15:59:27.519Z,100343.41
2023-02-19T16:02:30.540Z,100339.81
2023-02-19T16:05:39.359Z,100355.03
2023-02-19T16:08:45.550Z,100361.25
2023-02-19T16:11:54.681Z,100351.06
2023-02-19T16:14:57.984Z,100363.84
2023-02-19T16:18:02.186Z,100363.03
2023-02-19T16:21:09.288Z,100366.88
2023-02-19T16:24:36.857Z,100370.88
2023-02-19T16:27:43.074Z,100377.31
2023-02-19T16:30:45.820Z,100357.31
2023-02-19T16:33:50.062Z,100374.31
2023-02-19T16:36:52.607Z,100384.31
2023-02-19T16:40:21.433Z,100388.50
2023-02-19T16:43:39.298Z,100391.75
2023-02-19T16:46:42.006Z,100371.56
2023-02-19T16:49:44.854Z,100368.56
2023-02-19T16:52:54.511Z,100379.78
2023-02-19T16:55:56.937Z,100394.38
2023-02-19T16:58:59.836Z,100404.16
2023-02-19T17:02:05.650Z,100411.94
2023-02-19T17:05:08.507Z,100424.31
2023-02-19T17:08:37.394Z,100407.13
2023-02-19T17:11:40.316Z,100440.31
2023-02-19T17:14:43.150Z,100434.88
2023-02-19T17:17:45.946Z,100412.28
2023-02-19T17:20:54.420Z,100417.94
2023-02-19T17:23:57.429Z,100410.66
2023-02-19T17:27:00.590Z,100430.66
2023-02-19T17:30:04.228Z,100437.63
2023-02-19T17:33:07.572Z,100440.81
2023-02-19T17:36:23.836Z,100443.44
2023-02-19T17:39:27.789Z,100462.69
2023-02-19T17:42:30.546Z,100447.41
2023-02-19T17:45:33.765Z,100463.00
2023-02-19T17:48:36.416Z,100465.97
2023-02-19T17:51:39.583Z,100462.53
2023-02-19T17:54:43.248Z,100461.72
2023-02-19T17:57:47.880Z,100474.72
2023-02-19T18:00:51.044Z,100478.31
2023-02-19T18:03:54.484Z,100483.06
2023-02-19T18:06:57.434Z,100472.25
2023-02-19T18:10:00.171Z,100475.97
2023-02-19T18:13:03.395Z,100488.34
2023-02-19T18:16:06.783Z,100506.91
2023-02-19T18:19:09.881Z,100499.91
2023-02-19T18:22:12.652Z,100519.44
2023-02-19T18:25:17.388Z,100531.00
2023-02-19T18:28:21.323Z,100551.13
2023-02-19T18:31:24.135Z,100558.88
2023-02-19T18:34:27.019Z,100557.44
2023-02-19T18:37:32.480Z,100568.75
2023-02-19T18:40:36.362Z,100567.84
2023-02-19T18:43:41.397Z,100580.56
2023-02-19T18:46:44.558Z,100582.25
2023-02-19T18:49:48.633Z,100593.53
2023-02-19T18:52:51.827Z,100607.31
2023-02-19T18:55:56.899Z,100598.38
2023-02-19T18:59:00.466Z,100616.75
2023-02-19T19:02:05.095Z,100610.66
2023-02-19T19:05:08.980Z,100611.34
2023-02-19T19:08:11.661Z,100609.28
2023-02-19T19:11:14.277Z,100616.88
2023-02-19T19:14:17.007Z,100604.91
2023-02-19T19:17:21.810Z,100607.00
2023-02-19T19:20:24.689Z,100618.31
2023-02-19T19:23:27.606Z,100606.03
2023-02-19T19:26:30.701Z,100616.41
2023-02-19T19:29:34.297Z,100611.28
2023-02-19T19:32:37.862Z,100622.25
2023-02-19T19:35:40.624Z,100608.44
2023-02-19T19:38:43.621Z,100613.81
2023-02-19T19:41:47.094Z,100641.94
2023-02-19T19:44:49.925Z,100625.16
2023-02-19T19:47:53.119Z,100633.78
2023-02-19T19:50:57.173Z,100640.69
2023-02-19T19:54:01.186Z,100660.78
2023-02-19T19:57:03.825Z,100665.19
2023-02-19T20:00:07.342Z,100658.94
2023-02-19T20:03:19.046Z,100687.00
2023-02-19T20:06:30.816Z,100717.09
2023-02-19T20:09:33.829Z,100730.69
2023-02-19T20:12:36.579Z,100729.94
2023-02-19T20:15:39.424Z,100722.63
2023-02-19T20:18:41.964Z,100753.81
2023-02-19T20:21:49.116Z,100757.66
2023-02-19T20:24:52.985Z,100765.31
2023-02-19T20:27:56.201Z,100767.19
2023-02-19T20:30:59.000Z,100794.97
2023-02-19T20:34:02.222Z,100799.91
2023-02-19T20:37:05.706Z,100804.34
2023-02-19T20:40:10.738Z,100814.53
2023-02-19T20:43:13.426Z,100806.72
2023-02-19T20:46:16.431Z,100820.31
2023-02-19T20:49:21.609Z,100815.00
2023-02-19T20:52:24.879Z,100845.84
2023-02-19T20:55:28.088Z,100824.25
2023-02-19T20:58:31.957Z,100844.09
2023-02-19T21:01:34.813Z,100869.31
2023-02-19T21:04:39.023Z,100858.72
2023-02-19T21:07:41.711Z,100868.88
2023-02-19T21:10:46.527Z,100880.22
2023-02-19T21:13:49.348Z,100876.38
2023-02-19T21:16:52.436Z,100878.00
2023-02-19T21:19:55.172Z,100893.03
2023-02-19T21:22:58.076Z,100890.00
2023-02-19T21:26:03.068Z,100909.78
2023-02-19T21:29:07.676Z,100905.25
2023-02-19T21:32:11.170Z,100910.75
2023-02-19T21:35:13.695Z,100919.34
2023-02-19T21:38:16.184Z,100927.25
2023-02-19T21:41:18.873Z,100927.75
2023-02-19T21:44:21.772Z,100919.84
2023-02-19T21:47:24.319Z,100933.41
2023-02-19T21:50:27.145Z,100939.91
2023-02-19T21:53:29.794Z,100941.84
2023-02-19T21:56:36.217Z,100959.47
2023-02-19T21:59:39.756Z,100946.56
2023-02-19T22:02:43.098Z,100953.34
2023-02-19T22:05:45.597Z,100965.75
2023-02-19T22:08:48.180Z,100983.34
2023-02-19T22:11:50.990Z,100996.09
2023-02-19T22:14:53.414Z,100997.03
2023-02-19T22:17:55.898Z,100992.50
2023-02-19T22:20:58.668Z,100993.28
2023-02-19T22:24:02.884Z,101012.94
2023-02-19T22:27:05.532Z,100998.19
2023-02-19T22:30:10.056Z,100999.19
2023-02-19T22:33:13.685Z,101009.75
2023-02-19T22:36:24.709Z,100984.41
2023-02-19T22:39:27.231Z,101000.31
2023-02-19T22:42:29.725Z,101012.88
2023-02-19T22:45:32.279Z,100988.44
2023-02-19T22:48:34.792Z,101012.00
2023-02-19T22:51:37.513Z,101009.56
2023-02-19T22:54:40.255Z,101028.28
2023-02-19T22:57:42.642Z,101015.81
2023-02-19T23:00:46.636Z,101018.91
2023-02-19T23:03:52.126Z,101045.31
2023-02-19T23:06:55.251Z,101034.00
2023-02-19T23:09:57.892Z,101034.75
2023-02-19T23:13:00.517Z,101047.41
2023-02-19T23:16:04.732Z,101047.88
2023-02-19T23:19:12.607Z,101056.34
2023-02-19T23:22:15.169Z,101057.97
2023-02-19T23:25:17.733Z,101079.25
2023-02-19T23:28:20.612Z,101070.78
2023-02-19T23:31:23.596Z,101082.47
2023-02-19T23:34:26.246Z,101073.22
2023-02-19T23:37:28.812Z,101079.38
2023-02-19T23:40:31.721Z,101089.13
2023-02-19T23:43:34.166Z,101085.72
2023-02-19T23:46:36.784Z,101080.28
2023-02-19T23:49:39.236Z,101079.84
2023-02-19T23:52:42.206Z,101078.16
2023-02-19T23:55:44.732Z,101078.78
2023-02-19T23:58:47.322Z,101085.75
